Time;durP1;ratioP1;P1;durP2;ratioP2;P2;SDS_P1;SDS_P2;PMS_P1;PMS_P2;Temp;Humidity;BMP_temperature;BMP_pressure;BME280_temperature;BME280_humidity;BME280_pressure;Samples;Min_cycle;Max_cycle;Signal;HPM_P1;HPM_P2
2021/07/02 00:00:35;;;;;;;7.10;5.57;;;15.90;99.90;;;;;;5042337;28;20186;-79
2021/07/02 00:03:01;;;;;;;8.80;5.72;;;15.80;99.90;;;;;;5041845;28;20202;-77
2021/07/02 00:05:27;;;;;;;9.45;5.72;;;15.80;99.90;;;;;;5038925;28;21031;-78
2021/07/02 00:07:53;;;;;;;18.05;5.65;;;15.90;99.90;;;;;;5041425;28;20209;-80
2021/07/02 00:10:18;;;;;;;7.78;5.22;;;15.80;99.90;;;;;;5040834;28;20182;-77
2021/07/02 00:12:44;;;;;;;8.80;5.75;;;15.80;99.90;;;;;;5040987;28;20592;-78
2021/07/02 00:15:11;;;;;;;9.13;5.60;;;15.80;99.90;;;;;;5038447;28;20183;-79
2021/07/02 00:17:36;;;;;;;10.80;6.05;;;15.90;99.90;;;;;;5040794;28;20293;-79
2021/07/02 00:20:03;;;;;;;8.30;5.72;;;15.90;99.90;;;;;;5039619;28;20276;-76
2021/07/02 00:22:28;;;;;;;11.02;6.72;;;15.80;99.90;;;;;;5034784;28;20210;-76
2021/07/02 00:24:54;;;;;;;11.57;5.80;;;15.90;99.90;;;;;;5035819;28;20178;-78
2021/07/02 00:27:20;;;;;;;8.50;5.15;;;15.80;99.90;;;;;;5036768;28;20213;-78
2021/07/02 00:29:45;;;;;;;12.10;5.68;;;15.90;99.90;;;;;;5036835;28;20231;-77
2021/07/02 00:32:11;;;;;;;9.52;5.70;;;15.80;99.90;;;;;;5036198;28;20542;-78
2021/07/02 00:34:37;;;;;;;8.27;5.30;;;15.80;99.90;;;;;;5039467;28;20182;-78
2021/07/02 00:37:03;;;;;;;11.85;5.82;;;15.90;99.90;;;;;;5038035;28;20199;-76
2021/07/02 00:39:29;;;;;;;8.80;5.97;;;15.90;99.90;;;;;;5034810;28;20190;-79
2021/07/02 00:41:54;;;;;;;7.63;5.10;;;15.90;99.90;;;;;;5038394;28;20186;-77
2021/07/02 00:44:46;;;;;;;8.48;5.70;;;15.90;99.90;;;;;;5034581;28;20706;-75
2021/07/02 00:47:13;;;;;;;9.00;5.30;;;15.90;99.90;;;;;;5036793;28;20198;-76
2021/07/02 00:49:39;;;;;;;10.70;5.75;;;15.90;99.90;;;;;;5037338;28;20256;-76
2021/07/02 00:52:07;;;;;;;10.45;5.88;;;15.90;99.90;;;;;;5036758;28;20273;-77
2021/07/02 00:54:35;;;;;;;11.88;5.38;;;16.00;99.90;;;;;;5036105;28;20175;-76
2021/07/02 00:57:02;;;;;;;9.10;6.18;;;16.00;99.90;;;;;;5035215;28;21095;-75
2021/07/02 00:59:28;;;;;;;11.77;6.35;;;15.90;99.90;;;;;;5036211;28;20179;-78
2021/07/02 01:01:54;;;;;;;8.13;5.82;;;16.00;99.90;;;;;;5035612;28;20184;-77
2021/07/02 01:04:19;;;;;;;9.50;5.95;;;16.00;99.90;;;;;;5044036;28;20704;-77
2021/07/02 01:06:46;;;;;;;15.13;6.90;;;15.90;99.90;;;;;;5040463;28;20203;-80
2021/07/02 01:09:12;;;;;;;10.52;6.53;;;15.90;99.90;;;;;;5038057;28;20186;-80
2021/07/02 01:11:38;;;;;;;9.23;6.15;;;15.90;99.90;;;;;;5040340;28;20186;-79
2021/07/02 01:14:04;;;;;;;13.75;6.60;;;15.90;99.90;;;;;;5038462;28;20221;-80
2021/07/02 01:16:30;;;;;;;8.38;6.10;;;15.90;99.90;;;;;;5039509;28;20211;-79
2021/07/02 01:18:55;;;;;;;11.98;6.25;;;15.90;99.90;;;;;;5040908;28;20183;-78
2021/07/02 01:21:21;;;;;;;10.50;6.00;;;15.90;99.90;;;;;;5038425;28;20197;-79
2021/07/02 01:23:46;;;;;;;14.70;6.30;;;15.90;99.90;;;;;;5039949;28;20234;-78
2021/07/02 01:26:13;;;;;;;12.73;6.72;;;15.90;99.90;;;;;;5039544;28;20196;-78
2021/07/02 01:28:38;;;;;;;15.15;7.47;;;15.90;99.90;;;;;;5038357;28;20304;-77
2021/07/02 01:31:04;;;;;;;10.70;6.63;;;15.90;99.90;;;;;;5038791;28;20651;-79
2021/07/02 01:33:30;;;;;;;13.85;7.22;;;15.90;99.90;;;;;;5039317;28;20186;-80
2021/07/02 01:35:59;;;;;;;9.40;6.07;;;15.90;99.90;;;;;;5041587;28;20189;-78
2021/07/02 01:38:24;;;;;;;8.77;6.30;;;15.90;99.90;;;;;;5037183;28;20210;-78
2021/07/02 01:40:50;;;;;;;14.02;7.25;;;15.90;99.90;;;;;;5037935;28;20188;-78
2021/07/02 01:43:16;;;;;;;11.90;6.47;;;15.90;99.90;;;;;;5038932;28;20210;-77
2021/07/02 01:45:41;;;;;;;10.88;6.32;;;15.90;99.90;;;;;;5037198;28;20248;-80
2021/07/02 01:48:07;;;;;;;13.25;6.90;;;15.90;99.90;;;;;;5037250;28;20222;-78
2021/07/02 01:50:33;;;;;;;9.63;6.32;;;16.00;99.90;;;;;;5037785;28;20261;-79
2021/07/02 01:52:58;;;;;;;8.48;5.85;;;16.00;99.90;;;;;;5037495;28;20554;-78
2021/07/02 01:55:24;;;;;;;10.98;5.65;;;16.00;99.90;;;;;;5037869;28;20511;-79
2021/07/02 01:57:50;;;;;;;14.85;5.63;;;15.90;99.90;;;;;;5036877;28;20626;-78
2021/07/02 02:00:16;;;;;;;10.48;5.80;;;16.00;99.90;;;;;;5038076;28;20190;-79
2021/07/02 02:02:42;;;;;;;7.57;5.60;;;15.90;99.90;;;;;;5038781;28;20263;-79
2021/07/02 02:05:08;;;;;;;8.30;5.65;;;15.90;99.90;;;;;;5038855;28;20194;-79
2021/07/02 02:07:33;;;;;;;8.10;4.75;;;15.80;99.90;;;;;;5036997;28;20206;-79
2021/07/02 02:09:59;;;;;;;10.02;6.60;;;15.80;99.90;;;;;;5037611;28;20693;-79
2021/07/02 02:12:24;;;;;;;7.30;5.15;;;15.80;99.90;;;;;;5036301;28;20187;-79
2021/07/02 02:14:50;;;;;;;9.05;5.30;;;15.90;99.90;;;;;;5037182;28;20197;-79
2021/07/02 02:17:16;;;;;;;10.55;5.47;;;15.90;99.90;;;;;;5034221;28;20630;-79
2021/07/02 02:19:41;;;;;;;13.05;6.07;;;15.90;99.90;;;;;;5036618;28;20198;-79
2021/07/02 02:22:07;;;;;;;7.18;4.88;;;15.90;99.90;;;;;;5038322;28;20187;-78
2021/07/02 02:24:33;;;;;;;10.02;5.45;;;15.90;99.90;;;;;;5036189;28;20175;-79
2021/07/02 02:26:58;;;;;;;10.13;5.57;;;15.80;99.90;;;;;;5037044;28;20206;-79
2021/07/02 02:29:24;;;;;;;8.48;5.25;;;15.90;99.90;;;;;;5038256;28;20183;-80
2021/07/02 02:31:51;;;;;;;8.30;5.55;;;15.90;99.90;;;;;;5037614;28;20179;-79
2021/07/02 02:34:17;;;;;;;9.48;5.07;;;15.90;99.90;;;;;;5038994;28;20263;-79
2021/07/02 02:36:42;;;;;;;9.00;5.57;;;15.80;99.90;;;;;;5036458;28;20265;-79
2021/07/02 02:39:08;;;;;;;7.53;5.50;;;15.80;99.90;;;;;;5036040;28;20190;-79
2021/07/02 02:41:34;;;;;;;8.27;5.20;;;15.90;99.90;;;;;;5027897;28;20207;-79
2021/07/02 02:44:00;;;;;;;10.82;5.28;;;15.90;99.90;;;;;;5037763;28;20238;-79
2021/07/02 02:46:25;;;;;;;13.05;5.85;;;15.80;99.90;;;;;;5040150;28;20265;-79
2021/07/02 02:48:51;;;;;;;6.18;4.72;;;15.90;99.90;;;;;;5040394;28;20339;-79
2021/07/02 02:51:17;;;;;;;8.90;5.22;;;15.90;99.90;;;;;;5039377;28;20206;-78
2021/07/02 02:53:42;;;;;;;6.72;5.07;;;15.90;99.90;;;;;;5039838;28;20197;-79
2021/07/02 02:56:08;;;;;;;10.13;6.07;;;15.90;99.90;;;;;;5041331;28;20186;-78
2021/07/02 02:58:34;;;;;;;8.75;5.60;;;15.80;99.90;;;;;;5036850;28;20190;-78
2021/07/02 03:00:59;;;;;;;8.68;5.38;;;15.90;99.90;;;;;;5043453;28;20194;-78
2021/07/02 03:03:25;;;;;;;10.32;5.97;;;15.90;99.90;;;;;;5040555;28;20241;-79
2021/07/02 03:05:51;;;;;;;10.25;5.82;;;15.90;99.90;;;;;;5042402;28;20542;-78
2021/07/02 03:08:16;;;;;;;8.57;5.82;;;15.80;99.90;;;;;;5042495;28;20249;-78
2021/07/02 03:10:42;;;;;;;9.35;5.40;;;15.90;99.90;;;;;;5042374;28;20255;-79
2021/07/02 03:13:08;;;;;;;8.85;6.45;;;15.90;99.90;;;;;;5039477;28;20193;-78
2021/07/02 03:15:34;;;;;;;9.52;6.00;;;15.80;99.90;;;;;;5039986;28;20625;-79
2021/07/02 03:18:00;;;;;;;11.23;5.90;;;15.90;99.90;;;;;;5041119;28;20245;-79
2021/07/02 03:20:26;;;;;;;11.15;6.25;;;15.80;99.90;;;;;;5039639;28;20193;-79
2021/07/02 03:22:52;;;;;;;8.82;5.82;;;15.80;99.90;;;;;;5040092;28;20214;-78
2021/07/02 03:25:17;;;;;;;12.68;6.78;;;15.90;99.90;;;;;;5036197;28;20202;-80
2021/07/02 03:27:43;;;;;;;8.88;5.38;;;15.90;99.90;;;;;;5032929;28;20696;-79
2021/07/02 03:30:11;;;;;;;19.67;6.88;;;15.80;99.90;;;;;;5033419;28;20716;-78
2021/07/02 03:32:37;;;;;;;10.55;6.47;;;15.80;99.90;;;;;;5038176;28;20666;-79
2021/07/02 03:35:04;;;;;;;11.93;6.75;;;15.80;99.90;;;;;;5036429;28;20190;-77
2021/07/02 03:37:30;;;;;;;9.88;6.50;;;15.80;99.90;;;;;;5036148;28;20702;-78
2021/07/02 03:39:56;;;;;;;12.45;5.85;;;15.80;99.90;;;;;;5040122;28;20183;-78
2021/07/02 03:42:22;;;;;;;9.70;6.30;;;15.80;99.90;;;;;;5037385;28;20233;-78
2021/07/02 03:44:47;;;;;;;7.72;5.60;;;15.80;99.90;;;;;;5038642;28;20218;-77
2021/07/02 03:47:13;;;;;;;10.02;6.65;;;15.90;99.90;;;;;;5038412;28;20301;-79
2021/07/02 03:49:39;;;;;;;11.85;5.65;;;15.90;99.90;;;;;;5033716;28;20508;-78
2021/07/02 03:52:05;;;;;;;10.07;5.20;;;15.90;99.90;;;;;;5036058;28;20183;-79
2021/07/02 03:54:30;;;;;;;15.45;6.88;;;15.80;99.90;;;;;;5034890;28;20327;-78
2021/07/02 03:57:11;;;;;;;12.30;5.85;;;15.80;99.90;;;;;;5032325;28;20215;-76
2021/07/02 03:59:49;;;;;;;11.25;5.88;;;15.80;99.90;;;;;;5034963;28;20190;-79
2021/07/02 04:02:15;;;;;;;10.98;6.57;;;15.80;99.90;;;;;;5038153;28;20550;-79
2021/07/02 04:04:42;;;;;;;12.18;5.75;;;15.90;99.90;;;;;;5039445;28;20664;-79
2021/07/02 04:07:09;;;;;;;12.07;5.53;;;15.90;99.90;;;;;;5033635;28;20207;-79
2021/07/02 04:09:35;;;;;;;9.20;6.07;;;15.90;99.90;;;;;;5038287;28;20635;-78
2021/07/02 04:12:02;;;;;;;8.77;5.40;;;15.90;99.90;;;;;;5029163;28;20187;-77
2021/07/02 04:14:29;;;;;;;7.97;5.32;;;15.80;99.90;;;;;;5034198;28;20202;-77
2021/07/02 04:16:56;;;;;;;9.40;5.75;;;15.90;99.90;;;;;;5035081;28;20214;-78
2021/07/02 04:19:22;;;;;;;10.25;5.75;;;15.90;99.90;;;;;;5031056;28;20453;-78
2021/07/02 04:21:48;;;;;;;9.65;5.93;;;16.00;99.90;;;;;;5035344;28;20186;-79
2021/07/02 04:24:14;;;;;;;9.65;5.28;;;15.90;99.90;;;;;;5036781;28;20259;-76
2021/07/02 04:26:40;;;;;;;8.75;5.40;;;16.00;99.90;;;;;;5037678;28;20206;-78
2021/07/02 04:29:05;;;;;;;11.55;5.70;;;16.00;99.90;;;;;;5040505;28;20182;-79
2021/07/02 04:31:31;;;;;;;9.50;6.03;;;15.90;99.90;;;;;;5035315;28;20183;-78
2021/07/02 04:33:56;;;;;;;8.73;5.13;;;15.90;99.90;;;;;;5035134;28;20483;-79
2021/07/02 04:36:22;;;;;;;9.23;5.47;;;15.90;99.90;;;;;;5036264;28;20233;-79
2021/07/02 04:38:48;;;;;;;8.88;5.78;;;16.00;99.90;;;;;;5037364;28;20625;-79
2021/07/02 04:41:13;;;;;;;9.13;6.30;;;16.00;99.90;;;;;;5036118;28;20186;-78
2021/07/02 04:43:39;;;;;;;12.52;6.22;;;15.90;99.90;;;;;;5038221;28;20218;-78
2021/07/02 04:46:05;;;;;;;13.88;5.78;;;15.90;99.90;;;;;;5036312;28;20189;-78
2021/07/02 04:48:30;;;;;;;9.75;5.75;;;15.90;99.90;;;;;;5031822;28;20218;-79
2021/07/02 04:50:56;;;;;;;7.57;5.47;;;15.90;99.90;;;;;;5035092;28;20399;-79
2021/07/02 04:53:21;;;;;;;9.65;5.45;;;15.80;99.90;;;;;;5036511;28;20830;-78
2021/07/02 04:55:47;;;;;;;10.02;5.50;;;15.80;99.90;;;;;;5034378;28;20178;-81
2021/07/02 04:58:16;;;;;;;14.45;6.03;;;15.80;99.90;;;;;;5038035;28;20256;-77
2021/07/02 05:00:42;;;;;;;9.10;5.50;;;15.90;99.90;;;;;;5034652;28;20183;-77
2021/07/02 05:03:07;;;;;;;9.27;5.80;;;15.90;99.90;;;;;;5035527;28;20686;-78
2021/07/02 05:05:33;;;;;;;11.50;6.53;;;15.90;99.90;;;;;;5035761;28;20243;-79
2021/07/02 05:08:00;;;;;;;9.20;6.18;;;15.80;99.90;;;;;;5035640;28;20202;-80
2021/07/02 05:10:25;;;;;;;10.60;7.03;;;15.90;99.90;;;;;;5035868;28;20652;-80
2021/07/02 05:12:51;;;;;;;10.95;6.25;;;15.80;99.90;;;;;;5038594;28;20201;-79
2021/07/02 05:15:17;;;;;;;12.52;7.80;;;15.80;99.90;;;;;;5038528;28;20194;-81
2021/07/02 05:17:43;;;;;;;12.52;7.00;;;15.80;99.90;;;;;;5036336;28;20220;-80
2021/07/02 05:20:09;;;;;;;11.82;6.55;;;15.80;99.90;;;;;;5032906;28;20190;-77
2021/07/02 05:22:35;;;;;;;12.88;7.53;;;15.80;99.90;;;;;;5035287;28;20230;-78
2021/07/02 05:25:01;;;;;;;10.38;6.43;;;15.80;99.90;;;;;;5033209;28;20268;-79
2021/07/02 05:27:26;;;;;;;12.15;6.68;;;15.80;99.90;;;;;;5032605;28;20207;-79
2021/07/02 05:29:52;;;;;;;10.75;6.88;;;15.80;99.90;;;;;;5039677;28;20262;-79
2021/07/02 05:32:17;;;;;;;12.02;6.95;;;15.80;99.90;;;;;;5040553;28;20185;-80
2021/07/02 05:34:43;;;;;;;13.73;6.47;;;15.80;99.90;;;;;;5038629;28;20210;-79
2021/07/02 05:37:08;;;;;;;10.52;5.65;;;15.90;99.90;;;;;;5037975;28;20208;-80
2021/07/02 05:39:34;;;;;;;12.85;6.43;;;15.80;99.90;;;;;;5032840;28;20261;-79
2021/07/02 05:42:00;;;;;;;12.35;7.03;;;15.80;99.90;;;;;;5034873;28;20225;-81
2021/07/02 05:44:26;;;;;;;14.05;7.10;;;15.80;99.90;;;;;;5034995;28;20306;-77
2021/07/02 05:46:52;;;;;;;9.48;6.22;;;15.80;99.90;;;;;;5032798;28;20273;-80
2021/07/02 05:49:18;;;;;;;9.52;6.28;;;15.80;99.90;;;;;;5036888;28;20573;-79
2021/07/02 05:51:44;;;;;;;13.57;6.82;;;15.90;99.90;;;;;;5031840;28;20185;-80
2021/07/02 05:54:09;;;;;;;9.18;5.82;;;15.90;99.90;;;;;;5033546;28;20186;-79
2021/07/02 05:56:35;;;;;;;10.70;5.80;;;16.00;99.90;;;;;;5032517;28;20218;-79
2021/07/02 05:59:01;;;;;;;8.15;5.63;;;16.00;99.90;;;;;;5037440;28;20220;-78
2021/07/02 06:01:29;;;;;;;7.95;5.43;;;16.10;99.90;;;;;;5030899;28;20266;-79
2021/07/02 06:03:55;;;;;;;7.47;5.82;;;16.10;99.90;;;;;;5036498;28;20207;-79
2021/07/02 06:06:20;;;;;;;13.85;7.15;;;16.20;99.90;;;;;;5035061;28;20241;-79
2021/07/02 06:08:47;;;;;;;7.10;5.00;;;16.10;99.90;;;;;;5035771;28;20252;-79
2021/07/02 06:11:13;;;;;;;10.23;5.82;;;16.20;99.90;;;;;;5037928;28;20191;-79
2021/07/02 06:13:38;;;;;;;9.57;5.95;;;16.10;99.90;;;;;;5036109;28;20190;-79
2021/07/02 06:16:05;;;;;;;9.23;6.00;;;16.20;99.90;;;;;;5034978;28;21043;-80
2021/07/02 06:18:31;;;;;;;13.60;6.47;;;16.20;99.90;;;;;;5036440;28;20669;-78
2021/07/02 06:20:57;;;;;;;14.30;6.68;;;16.20;99.90;;;;;;5035266;28;20657;-80
2021/07/02 06:23:24;;;;;;;12.20;7.07;;;16.30;99.90;;;;;;5037847;28;20214;-79
2021/07/02 06:25:50;;;;;;;11.50;7.43;;;16.40;99.90;;;;;;5038789;28;20185;-79
2021/07/02 06:28:16;;;;;;;15.00;8.38;;;16.50;99.90;;;;;;5039016;28;20302;-79
2021/07/02 06:30:43;;;;;;;13.48;6.90;;;16.50;99.90;;;;;;5036239;28;20741;-77
2021/07/02 06:33:12;;;;;;;13.68;7.00;;;16.50;99.90;;;;;;5038298;28;20190;-79
2021/07/02 06:35:37;;;;;;;11.10;6.40;;;16.60;99.90;;;;;;5043177;28;20190;-79
2021/07/02 06:38:03;;;;;;;14.25;7.90;;;16.70;99.90;;;;;;5037319;28;20211;-79
2021/07/02 06:40:29;;;;;;;9.43;5.80;;;16.70;99.90;;;;;;5047019;28;20336;-78
2021/07/02 06:42:55;;;;;;;12.15;7.07;;;16.80;99.90;;;;;;5038028;28;20210;-80
2021/07/02 06:45:21;;;;;;;17.20;7.82;;;16.90;99.90;;;;;;5039438;28;20817;-80
2021/07/02 06:48:09;;;;;;;9.38;5.97;;;16.90;99.90;;;;;;5043010;28;20733;-76
2021/07/02 06:50:37;;;;;;;11.60;7.50;;;17.00;99.90;;;;;;5044175;28;20178;-77
2021/07/02 06:53:05;;;;;;;14.20;7.07;;;17.00;99.90;;;;;;5040598;28;20206;-79
2021/07/02 06:55:32;;;;;;;12.50;7.80;;;17.00;99.90;;;;;;5044523;28;20183;-78
2021/07/02 06:57:58;;;;;;;13.82;7.40;;;17.10;99.90;;;;;;5037302;28;20215;-78
2021/07/02 07:00:24;;;;;;;12.18;7.13;;;17.10;99.90;;;;;;5035942;28;20198;-78
2021/07/02 07:02:51;;;;;;;13.40;7.90;;;17.10;99.90;;;;;;5039614;28;20703;-77
2021/07/02 07:05:17;;;;;;;14.73;7.88;;;17.10;99.90;;;;;;5038250;28;20254;-77
2021/07/02 07:07:44;;;;;;;19.75;9.25;;;17.20;99.90;;;;;;5036525;28;20595;-78
2021/07/02 07:10:11;;;;;;;14.45;8.10;;;17.20;99.90;;;;;;5040473;28;20640;-79
2021/07/02 07:12:37;;;;;;;14.27;8.23;;;17.30;99.90;;;;;;5036940;28;20183;-79
2021/07/02 07:15:04;;;;;;;15.68;8.05;;;17.50;99.90;;;;;;5042643;28;20282;-78
2021/07/02 07:17:31;;;;;;;12.77;5.65;;;17.70;99.90;;;;;;5033115;28;20679;-78
2021/07/02 07:19:57;;;;;;;11.00;6.82;;;17.80;99.90;;;;;;5039480;28;20194;-77
2021/07/02 07:22:22;;;;;;;10.27;6.72;;;18.00;99.90;;;;;;5039200;28;20178;-78
2021/07/02 07:24:48;;;;;;;12.45;6.20;;;18.10;99.90;;;;;;5041545;28;20183;-77
2021/07/02 07:27:14;;;;;;;10.90;5.85;;;18.10;99.90;;;;;;5037761;28;20301;-78
2021/07/02 07:29:39;;;;;;;11.52;6.00;;;17.90;99.90;;;;;;5037246;28;20979;-78
2021/07/02 07:32:05;;;;;;;12.73;6.80;;;17.90;99.90;;;;;;5034348;28;20190;-78
2021/07/02 07:37:06;;;;;;;8.48;5.68;;;18.20;99.90;;;;;;5041795;28;20562;-78
2021/07/02 07:39:32;;;;;;;11.50;6.20;;;18.10;99.90;;;;;;5032892;28;20187;-77
2021/07/02 07:41:58;;;;;;;10.82;5.68;;;18.20;99.90;;;;;;5034698;28;20183;-78
2021/07/02 07:44:23;;;;;;;8.85;6.03;;;18.20;99.90;;;;;;5038140;28;20718;-77
2021/07/02 07:46:49;;;;;;;10.65;6.43;;;18.10;99.90;;;;;;5036272;28;20206;-76
2021/07/02 07:49:15;;;;;;;12.15;6.60;;;18.00;99.90;;;;;;5030807;28;20210;-78
2021/07/02 07:52:26;;;;;;;10.63;6.65;;;18.30;99.90;;;;;;5040737;28;20206;-79
2021/07/02 07:54:29;;;;;;;11.05;5.65;;;18.40;99.90;;;;;;5032979;28;20186;-79
2021/07/02 07:57:20;;;;;;;10.25;6.65;;;18.60;99.90;;;;;;5038125;28;20203;-86
2021/07/02 09:00:41;;;;;;;5.40;4.10;;;19.00;99.90;;;;;;5032920;28;20220;-85
2021/07/02 09:03:30;;;;;;;6.97;4.20;;;18.90;99.90;;;;;;5033930;28;20216;-83
2021/07/02 09:08:38;;;;;;;8.40;5.22;;;18.40;99.90;;;;;;5032836;23;20791;-72
2021/07/02 09:11:23;;;;;;;8.57;5.88;;;18.40;99.90;;;;;;5023899;28;20182;-72
2021/07/02 09:13:49;;;;;;;8.77;5.05;;;18.60;99.90;;;;;;5025069;28;20214;-72
2021/07/02 09:16:26;;;;;;;6.95;4.85;;;18.60;99.90;;;;;;5023934;28;20262;-72
2021/07/02 09:18:52;;;;;;;9.82;4.55;;;18.70;99.90;;;;;;5024348;28;20213;-74
2021/07/02 09:21:31;;;;;;;7.85;5.15;;;19.00;99.90;;;;;;5025301;28;20178;-73
2021/07/02 09:23:58;;;;;;;6.25;4.57;;;19.00;99.90;;;;;;5025596;28;20211;-72
2021/07/02 09:26:43;;;;;;;9.45;5.00;;;19.00;99.90;;;;;;5023045;28;20182;-73
2021/07/02 09:29:24;;;;;;;7.50;4.40;;;19.00;99.90;;;;;;5024230;28;20213;-73
2021/07/02 09:32:00;;;;;;;6.10;4.50;;;18.90;99.90;;;;;;5023912;28;20187;-73
2021/07/02 09:34:48;;;;;;;8.40;4.95;;;18.70;99.90;;;;;;5024502;28;20201;-73
2021/07/02 09:37:32;;;;;;;6.63;4.55;;;18.50;99.90;;;;;;5024242;28;20248;-73
2021/07/02 09:40:21;;;;;;;7.80;4.20;;;18.60;99.90;;;;;;5024522;28;20202;-73
2021/07/02 09:43:11;;;;;;;6.13;4.53;;;18.80;99.90;;;;;;5024036;28;20229;-73
2021/07/02 09:45:49;;;;;;;8.70;5.03;;;19.20;99.90;;;;;;5023675;28;20213;-73
2021/07/02 09:48:17;;;;;;;8.60;5.05;;;19.40;99.90;;;;;;5024084;28;20198;-73
2021/07/02 09:50:45;;;;;;;6.60;4.78;;;19.40;99.90;;;;;;5024117;28;20202;-73
2021/07/02 09:53:11;;;;;;;8.50;4.22;;;19.30;99.90;;;;;;5023712;28;20206;-73
2021/07/02 09:55:45;;;;;;;6.53;4.20;;;19.20;99.90;;;;;;5021219;28;20186;-73
2021/07/02 09:58:15;;;;;;;9.02;5.28;;;19.00;99.90;;;;;;5024086;28;20190;-73
2021/07/02 10:00:49;;;;;;;10.05;5.63;;;19.00;99.90;;;;;;5024187;28;20784;-73
2021/07/02 10:03:17;;;;;;;8.00;4.53;;;19.20;99.90;;;;;;5023275;28;20202;-72
2021/07/02 10:05:45;;;;;;;6.85;5.07;;;19.40;99.90;;;;;;5022387;28;20183;-72
2021/07/02 10:08:11;;;;;;;5.57;4.00;;;19.50;99.90;;;;;;5023722;28;20670;-74
2021/07/02 10:10:38;;;;;;;6.22;4.43;;;19.80;99.90;;;;;;5013197;28;20202;-73
2021/07/02 10:13:05;;;;;;;5.30;3.65;;;19.90;99.90;;;;;;5021691;28;21441;-73
2021/07/02 10:15:31;;;;;;;4.82;3.83;;;20.20;99.90;;;;;;5021134;28;20171;-73
2021/07/02 10:17:58;;;;;;;5.18;3.78;;;20.60;99.90;;;;;;5022293;28;20191;-74
2021/07/02 10:20:26;;;;;;;6.50;3.88;;;21.00;99.90;;;;;;5023449;28;20213;-73
2021/07/02 10:22:56;;;;;;;8.15;4.07;;;21.20;99.90;;;;;;5023338;28;20286;-73
2021/07/02 10:25:23;;;;;;;5.53;3.88;;;21.40;99.90;;;;;;5022412;28;20265;-73
2021/07/02 10:27:49;;;;;;;7.35;4.18;;;21.60;99.90;;;;;;5022366;28;20784;-73
2021/07/02 10:30:15;;;;;;;5.20;3.53;;;21.70;99.90;;;;;;5022582;28;20234;-72
2021/07/02 10:32:43;;;;;;;4.40;3.22;;;21.80;99.90;;;;;;5022622;28;20198;-72
2021/07/02 10:35:13;;;;;;;5.38;3.33;;;21.60;99.90;;;;;;5022153;28;20700;-73
2021/07/02 10:37:41;;;;;;;5.43;3.78;;;21.40;99.90;;;;;;5009784;28;20274;-72
2021/07/02 10:40:30;;;;;;;5.30;3.20;;;21.30;99.90;;;;;;5022104;28;20450;-72
2021/07/02 10:43:15;;;;;;;4.07;2.60;;;21.50;99.90;;;;;;5014068;28;20232;-73
2021/07/02 10:46:15;;;;;;;6.45;3.97;;;21.50;99.90;;;;;;5022452;28;20665;-72
2021/07/02 10:48:56;;;;;;;4.90;3.00;;;21.20;99.90;;;;;;5022462;28;20261;-73
2021/07/02 10:51:45;;;;;;;7.38;4.25;;;21.20;99.90;;;;;;5022317;28;20178;-75
2021/07/02 10:54:13;;;;;;;6.93;4.00;;;21.10;99.90;;;;;;5012535;28;20203;-74
2021/07/02 10:57:00;;;;;;;5.38;3.30;;;21.20;99.90;;;;;;5020757;28;20214;-74
2021/07/02 10:59:38;;;;;;;5.00;2.70;;;21.10;99.90;;;;;;5022405;28;20207;-73
2021/07/02 11:02:07;;;;;;;4.65;3.22;;;21.10;99.90;;;;;;5021495;28;20198;-73
2021/07/02 11:04:35;;;;;;;4.55;3.00;;;21.00;99.90;;;;;;5022001;28;20215;-74
2021/07/02 11:07:27;;;;;;;4.80;2.85;;;21.00;99.90;;;;;;5023218;28;20555;-73
2021/07/02 11:09:55;;;;;;;3.67;2.80;;;21.30;99.90;;;;;;5026312;28;20234;-73
2021/07/02 11:12:42;;;;;;;5.05;3.45;;;21.40;99.90;;;;;;5024941;28;20178;-74
2021/07/02 11:15:12;;;;;;;3.67;2.47;;;21.30;99.90;;;;;;5027031;28;20180;-73
2021/07/02 11:17:46;;;;;;;4.45;2.40;;;21.20;99.90;;;;;;5025670;28;21129;-73
2021/07/02 11:20:18;;;;;;;3.90;2.92;;;21.00;99.90;;;;;;5027407;28;20925;-72
2021/07/02 11:22:45;;;;;;;5.47;2.92;;;20.70;99.90;;;;;;5024564;28;20665;-72
2021/07/02 11:25:20;;;;;;;3.35;2.50;;;20.30;99.90;;;;;;5025878;28;20230;-73
2021/07/02 11:27:52;;;;;;;4.30;3.00;;;20.00;99.90;;;;;;5024941;28;21021;-72
2021/07/02 11:30:24;;;;;;;5.38;3.58;;;19.80;99.90;;;;;;5026234;28;20226;-73
2021/07/02 11:32:55;;;;;;;3.85;3.05;;;19.70;99.90;;;;;;5026707;28;20229;-73
2021/07/02 11:35:53;;;;;;;3.40;2.65;;;19.60;99.90;;;;;;5028038;28;20213;-73
2021/07/02 11:38:23;;;;;;;5.05;3.35;;;19.60;99.90;;;;;;4984310;28;20713;-73
2021/07/02 11:41:04;;;;;;;4.57;3.05;;;19.50;99.90;;;;;;5027931;28;20217;-73
2021/07/02 11:43:33;;;;;;;5.78;3.72;;;19.40;99.90;;;;;;5027078;28;20202;-72
2021/07/02 11:46:05;;;;;;;4.28;2.60;;;19.10;99.90;;;;;;5025454;28;20186;-72
2021/07/02 11:48:33;;;;;;;6.68;3.20;;;19.10;99.90;;;;;;5026342;28;20167;-73
2021/07/02 11:51:05;;;;;;;4.07;3.05;;;19.10;99.90;;;;;;5026980;28;20197;-72
2021/07/02 11:53:33;;;;;;;3.38;2.75;;;19.20;99.90;;;;;;5026997;28;20204;-72
2021/07/02 11:56:01;;;;;;;4.78;3.00;;;19.10;99.90;;;;;;5025777;28;20400;-72
2021/07/02 11:58:29;;;;;;;4.82;3.20;;;19.20;99.90;;;;;;5027942;28;20186;-73
2021/07/02 12:00:58;;;;;;;5.15;3.08;;;19.40;99.90;;;;;;5028249;28;20198;-72
2021/07/02 12:03:24;;;;;;;4.25;3.20;;;19.80;99.90;;;;;;5027368;28;20199;-72
2021/07/02 12:05:58;;;;;;;5.05;3.10;;;20.30;99.90;;;;;;5024500;28;20661;-72
2021/07/02 12:08:25;;;;;;;3.97;3.17;;;20.40;99.90;;;;;;5025488;28;20202;-74
2021/07/02 12:11:00;;;;;;;4.85;2.92;;;20.70;99.90;;;;;;5026391;28;20206;-73
2021/07/02 12:13:27;;;;;;;4.00;3.17;;;20.90;99.90;;;;;;5026099;28;20202;-72
2021/07/02 12:16:02;;;;;;;3.65;3.08;;;21.00;99.90;;;;;;5024687;28;20182;-72
2021/07/02 12:18:28;;;;;;;3.58;2.75;;;21.00;99.90;;;;;;5016208;28;20187;-71
2021/07/02 12:21:09;;;;;;;4.00;2.83;;;21.20;99.90;;;;;;5023634;28;20190;-74
2021/07/02 12:23:38;;;;;;;4.65;3.15;;;21.30;99.90;;;;;;5024468;28;20214;-71
2021/07/02 12:26:19;;;;;;;4.90;3.20;;;21.30;99.90;;;;;;5022043;28;20187;-71
2021/07/02 12:29:11;;;;;;;5.20;2.90;;;21.20;99.90;;;;;;5024200;28;20201;-72
2021/07/02 12:31:48;;;;;;;3.50;2.90;;;21.30;99.90;;;;;;5020631;28;20538;-73
2021/07/02 12:34:20;;;;;;;3.90;2.58;;;21.40;99.90;;;;;;5024529;28;20978;-71
2021/07/02 12:37:03;;;;;;;5.68;2.95;;;21.60;99.90;;;;;;5023286;28;20189;-72
2021/07/02 12:39:53;;;;;;;3.67;2.80;;;21.70;99.90;;;;;;5023796;28;20225;-74
2021/07/02 12:42:23;;;;;;;4.25;3.10;;;21.70;99.90;;;;;;5021374;28;20194;-72
2021/07/02 12:44:54;;;;;;;3.65;2.70;;;22.00;99.90;;;;;;5023855;28;20207;-72
2021/07/02 12:47:22;;;;;;;3.67;2.88;;;22.10;99.90;;;;;;5023626;28;20653;-71
2021/07/02 12:49:57;;;;;;;4.78;2.85;;;22.20;99.90;;;;;;5024004;28;20481;-71
2021/07/02 12:55:14;;;;;;;3.08;2.30;;;22.30;99.90;;;;;;5023930;28;20653;-72
2021/07/02 12:57:50;;;;;;;4.65;2.45;;;22.20;99.90;;;;;;5021412;28;20183;-72
2021/07/02 13:00:21;;;;;;;4.30;2.67;;;22.10;99.90;;;;;;5023902;28;20229;-73
2021/07/02 13:02:49;;;;;;;3.10;2.22;;;21.60;99.90;;;;;;5023987;28;20290;-74
2021/07/02 13:05:21;;;;;;;4.53;2.70;;;21.40;99.90;;;;;;5023131;28;20183;-73
2021/07/02 13:07:54;;;;;;;4.93;2.92;;;21.10;99.90;;;;;;5023183;28;20202;-71
2021/07/02 13:10:24;;;;;;;3.38;2.40;;;20.80;99.90;;;;;;5024467;28;20230;-72
2021/07/02 13:13:14;;;;;;;3.97;2.70;;;20.60;99.90;;;;;;5023284;28;20541;-73
2021/07/02 13:15:48;;;;;;;8.60;3.65;;;20.50;99.90;;;;;;5021081;28;20276;-71
2021/07/02 13:18:24;;;;;;;4.78;2.75;;;20.50;99.90;;;;;;5023329;28;20183;-73
2021/07/02 13:20:55;;;;;;;3.95;2.53;;;20.60;99.90;;;;;;5024151;28;20202;-73
2021/07/02 13:23:23;;;;;;;7.03;2.90;;;20.70;99.90;;;;;;5022301;28;20757;-73
2021/07/02 13:26:03;;;;;;;3.70;2.58;;;21.00;99.90;;;;;;5021937;28;20580;-72
2021/07/02 13:28:43;;;;;;;3.28;2.35;;;21.00;99.90;;;;;;5023035;28;20742;-73
2021/07/02 13:31:25;;;;;;;4.25;2.47;;;21.10;99.90;;;;;;5022606;28;20190;-72
2021/07/02 13:33:59;;;;;;;4.47;2.70;;;20.80;99.90;;;;;;5024354;28;20501;-72
2021/07/02 13:36:34;;;;;;;6.05;3.28;;;20.60;99.90;;;;;;5022758;28;20187;-72
2021/07/02 13:39:12;;;;;;;4.47;2.92;;;20.60;99.90;;;;;;5023316;28;20214;-74
2021/07/02 13:41:40;;;;;;;3.40;2.90;;;20.40;99.90;;;;;;5022158;28;20178;-72
2021/07/02 13:44:07;;;;;;;5.93;2.97;;;20.30;99.90;;;;;;5022840;28;20210;-72
2021/07/02 13:46:36;;;;;;;4.25;2.47;;;20.30;99.90;;;;;;5022869;28;20183;-72
2021/07/02 13:49:06;;;;;;;7.72;3.65;;;20.30;99.90;;;;;;5023174;28;20289;-72
2021/07/02 13:51:33;;;;;;;3.58;2.78;;;20.10;99.90;;;;;;5023599;28;20549;-71
2021/07/02 13:54:07;;;;;;;7.70;3.85;;;20.20;99.90;;;;;;5023763;28;20187;-73
2021/07/02 13:56:33;;;;;;;4.57;3.45;;;20.20;99.90;;;;;;5022415;28;20225;-72
2021/07/02 13:58:58;;;;;;;4.43;3.30;;;20.30;99.90;;;;;;5023753;28;20293;-73
2021/07/02 14:01:24;;;;;;;4.68;3.28;;;20.20;99.90;;;;;;5023392;28;20378;-72